sensor_id;sensor_type;location;lat;lon;timestamp;P1;durP1;ratioP1;P2;durP2;ratioP2
43580;SDS011;29175;51.030;4.606;2023-04-06T00:02:08;51.25;;;21.23;;
43580;SDS011;29175;51.030;4.606;2023-04-06T00:04:33;57.88;;;22.95;;
43580;SDS011;29175;51.030;4.606;2023-04-06T00:06:59;62.20;;;23.25;;
43580;SDS011;29175;51.030;4.606;2023-04-06T00:09:25;58.80;;;23.65;;
43580;SDS011;29175;51.030;4.606;2023-04-06T00:11:51;58.92;;;22.67;;
43580;SDS011;29175;51.030;4.606;2023-04-06T00:14:17;61.45;;;22.20;;
43580;SDS011;29175;51.030;4.606;2023-04-06T00:16:43;54.45;;;21.65;;
43580;SDS011;29175;51.030;4.606;2023-04-06T00:19:09;47.65;;;21.13;;
43580;SDS011;29175;51.030;4.606;2023-04-06T00:21:34;51.40;;;21.67;;
43580;SDS011;29175;51.030;4.606;2023-04-06T00:24:00;49.00;;;20.63;;
43580;SDS011;29175;51.030;4.606;2023-04-06T00:26:26;53.20;;;19.35;;
43580;SDS011;29175;51.030;4.606;2023-04-06T00:28:52;59.83;;;22.80;;
43580;SDS011;29175;51.030;4.606;2023-04-06T00:31:18;56.22;;;20.85;;
43580;SDS011;29175;51.030;4.606;2023-04-06T00:33:43;47.42;;;19.95;;
43580;SDS011;29175;51.030;4.606;2023-04-06T00:36:09;44.90;;;19.25;;
43580;SDS011;29175;51.030;4.606;2023-04-06T00:38:35;48.75;;;20.05;;
43580;SDS011;29175;51.030;4.606;2023-04-06T00:41:02;55.40;;;21.40;;
43580;SDS011;29175;51.030;4.606;2023-04-06T00:43:29;52.03;;;19.75;;
43580;SDS011;29175;51.030;4.606;2023-04-06T00:45:55;51.13;;;20.23;;
43580;SDS011;29175;51.030;4.606;2023-04-06T00:48:20;43.80;;;19.73;;
43580;SDS011;29175;51.030;4.606;2023-04-06T00:50:46;49.38;;;19.30;;
43580;SDS011;29175;51.030;4.606;2023-04-06T00:53:12;43.50;;;19.42;;
43580;SDS011;29175;51.030;4.606;2023-04-06T00:55:38;49.22;;;20.88;;
43580;SDS011;29175;51.030;4.606;2023-04-06T00:58:04;55.67;;;19.25;;
43580;SDS011;29175;51.030;4.606;2023-04-06T01:00:31;51.72;;;20.42;;
43580;SDS011;29175;51.030;4.606;2023-04-06T01:02:57;54.30;;;19.30;;
43580;SDS011;29175;51.030;4.606;2023-04-06T01:05:23;45.80;;;18.23;;
43580;SDS011;29175;51.030;4.606;2023-04-06T01:07:49;50.53;;;19.48;;
43580;SDS011;29175;51.030;4.606;2023-04-06T01:10:28;45.08;;;19.70;;
43580;SDS011;29175;51.030;4.606;2023-04-06T01:12:54;47.10;;;19.17;;
43580;SDS011;29175;51.030;4.606;2023-04-06T01:15:20;47.63;;;18.30;;
43580;SDS011;29175;51.030;4.606;2023-04-06T01:17:46;54.53;;;19.52;;
43580;SDS011;29175;51.030;4.606;2023-04-06T01:20:12;52.40;;;19.58;;
43580;SDS011;29175;51.030;4.606;2023-04-06T01:22:38;55.45;;;20.38;;
43580;SDS011;29175;51.030;4.606;2023-04-06T01:25:04;56.10;;;19.77;;
43580;SDS011;29175;51.030;4.606;2023-04-06T01:27:30;57.20;;;19.23;;
43580;SDS011;29175;51.030;4.606;2023-04-06T01:29:56;49.40;;;20.83;;
43580;SDS011;29175;51.030;4.606;2023-04-06T01:32:22;54.05;;;19.17;;
43580;SDS011;29175;51.030;4.606;2023-04-06T01:34:48;55.92;;;19.73;;
43580;SDS011;29175;51.030;4.606;2023-04-06T01:37:13;47.60;;;18.23;;
43580;SDS011;29175;51.030;4.606;2023-04-06T01:39:39;43.45;;;17.25;;
43580;SDS011;29175;51.030;4.606;2023-04-06T01:42:06;49.80;;;18.48;;
43580;SDS011;29175;51.030;4.606;2023-04-06T01:44:31;40.30;;;17.00;;
43580;SDS011;29175;51.030;4.606;2023-04-06T01:46:57;41.13;;;16.50;;
43580;SDS011;29175;51.030;4.606;2023-04-06T01:49:23;42.45;;;17.42;;
43580;SDS011;29175;51.030;4.606;2023-04-06T01:51:49;41.20;;;16.17;;
43580;SDS011;29175;51.030;4.606;2023-04-06T01:54:15;41.65;;;16.33;;
43580;SDS011;29175;51.030;4.606;2023-04-06T01:56:41;43.53;;;16.65;;
43580;SDS011;29175;51.030;4.606;2023-04-06T01:59:07;42.00;;;16.52;;
43580;SDS011;29175;51.030;4.606;2023-04-06T02:01:32;48.42;;;17.23;;
43580;SDS011;29175;51.030;4.606;2023-04-06T02:03:58;47.17;;;17.13;;
43580;SDS011;29175;51.030;4.606;2023-04-06T02:06:24;39.70;;;16.65;;
43580;SDS011;29175;51.030;4.606;2023-04-06T02:08:50;43.33;;;17.02;;
43580;SDS011;29175;51.030;4.606;2023-04-06T02:11:16;44.90;;;16.58;;
43580;SDS011;29175;51.030;4.606;2023-04-06T02:13:41;41.25;;;17.15;;
43580;SDS011;29175;51.030;4.606;2023-04-06T02:16:07;41.00;;;17.20;;
43580;SDS011;29175;51.030;4.606;2023-04-06T02:18:33;46.50;;;16.20;;
43580;SDS011;29175;51.030;4.606;2023-04-06T02:20:59;38.63;;;16.75;;
43580;SDS011;29175;51.030;4.606;2023-04-06T02:23:25;46.63;;;16.63;;
43580;SDS011;29175;51.030;4.606;2023-04-06T02:25:51;44.38;;;18.30;;
43580;SDS011;29175;51.030;4.606;2023-04-06T02:28:17;43.60;;;17.00;;
43580;SDS011;29175;51.030;4.606;2023-04-06T02:30:43;41.92;;;16.40;;
43580;SDS011;29175;51.030;4.606;2023-04-06T02:33:09;40.95;;;16.63;;
43580;SDS011;29175;51.030;4.606;2023-04-06T02:35:35;47.17;;;16.38;;
43580;SDS011;29175;51.030;4.606;2023-04-06T02:38:00;48.65;;;18.27;;
43580;SDS011;29175;51.030;4.606;2023-04-06T02:40:26;42.33;;;16.45;;
43580;SDS011;29175;51.030;4.606;2023-04-06T02:42:52;44.10;;;15.98;;
43580;SDS011;29175;51.030;4.606;2023-04-06T02:45:18;45.05;;;16.88;;
43580;SDS011;29175;51.030;4.606;2023-04-06T02:47:44;39.20;;;17.02;;
43580;SDS011;29175;51.030;4.606;2023-04-06T02:50:10;47.83;;;17.70;;
43580;SDS011;29175;51.030;4.606;2023-04-06T02:52:36;48.08;;;17.90;;
43580;SDS011;29175;51.030;4.606;2023-04-06T02:55:02;40.47;;;15.93;;
43580;SDS011;29175;51.030;4.606;2023-04-06T02:57:28;40.13;;;15.55;;
43580;SDS011;29175;51.030;4.606;2023-04-06T02:59:53;44.60;;;17.20;;
43580;SDS011;29175;51.030;4.606;2023-04-06T03:02:19;38.92;;;15.52;;
43580;SDS011;29175;51.030;4.606;2023-04-06T03:04:45;36.40;;;15.75;;
43580;SDS011;29175;51.030;4.606;2023-04-06T03:07:11;35.28;;;15.63;;
43580;SDS011;29175;51.030;4.606;2023-04-06T03:09:37;38.08;;;14.77;;
43580;SDS011;29175;51.030;4.606;2023-04-06T03:12:03;39.90;;;15.70;;
43580;SDS011;29175;51.030;4.606;2023-04-06T03:14:29;44.80;;;15.98;;
43580;SDS011;29175;51.030;4.606;2023-04-06T03:16:55;38.78;;;16.05;;
43580;SDS011;29175;51.030;4.606;2023-04-06T03:19:21;46.92;;;17.35;;
43580;SDS011;29175;51.030;4.606;2023-04-06T03:21:46;40.95;;;16.08;;
43580;SDS011;29175;51.030;4.606;2023-04-06T03:24:12;39.67;;;15.63;;
43580;SDS011;29175;51.030;4.606;2023-04-06T03:26:40;39.15;;;15.82;;
43580;SDS011;29175;51.030;4.606;2023-04-06T03:29:07;37.75;;;15.10;;
43580;SDS011;29175;51.030;4.606;2023-04-06T03:31:32;41.58;;;16.30;;
43580;SDS011;29175;51.030;4.606;2023-04-06T03:33:58;40.38;;;15.38;;
43580;SDS011;29175;51.030;4.606;2023-04-06T03:36:24;42.13;;;15.10;;
43580;SDS011;29175;51.030;4.606;2023-04-06T03:38:51;41.63;;;14.52;;
43580;SDS011;29175;51.030;4.606;2023-04-06T03:41:18;43.20;;;16.05;;
43580;SDS011;29175;51.030;4.606;2023-04-06T03:43:44;53.85;;;17.25;;
43580;SDS011;29175;51.030;4.606;2023-04-06T03:46:10;40.38;;;14.95;;
43580;SDS011;29175;51.030;4.606;2023-04-06T03:48:36;44.35;;;15.50;;
43580;SDS011;29175;51.030;4.606;2023-04-06T03:51:02;33.03;;;14.50;;
43580;SDS011;29175;51.030;4.606;2023-04-06T03:53:28;36.92;;;14.38;;
43580;SDS011;29175;51.030;4.606;2023-04-06T03:55:54;34.85;;;13.90;;
43580;SDS011;29175;51.030;4.606;2023-04-06T03:58:20;36.70;;;14.93;;
43580;SDS011;29175;51.030;4.606;2023-04-06T04:00:46;39.28;;;15.55;;
43580;SDS011;29175;51.030;4.606;2023-04-06T04:03:12;45.80;;;15.82;;
43580;SDS011;29175;51.030;4.606;2023-04-06T04:05:37;41.40;;;16.25;;
43580;SDS011;29175;51.030;4.606;2023-04-06T04:08:03;40.50;;;14.85;;
43580;SDS011;29175;51.030;4.606;2023-04-06T04:10:29;33.95;;;13.93;;
43580;SDS011;29175;51.030;4.606;2023-04-06T04:12:55;36.80;;;14.93;;
43580;SDS011;29175;51.030;4.606;2023-04-06T04:15:21;38.67;;;14.80;;
43580;SDS011;29175;51.030;4.606;2023-04-06T04:17:47;44.22;;;14.90;;
43580;SDS011;29175;51.030;4.606;2023-04-06T04:20:14;39.25;;;14.05;;
43580;SDS011;29175;51.030;4.606;2023-04-06T04:22:41;39.45;;;14.77;;
43580;SDS011;29175;51.030;4.606;2023-04-06T04:25:07;42.33;;;16.52;;
43580;SDS011;29175;51.030;4.606;2023-04-06T04:27:33;36.40;;;15.18;;
43580;SDS011;29175;51.030;4.606;2023-04-06T04:29:59;46.25;;;16.63;;
43580;SDS011;29175;51.030;4.606;2023-04-06T04:32:25;39.58;;;14.35;;
43580;SDS011;29175;51.030;4.606;2023-04-06T04:34:52;36.25;;;15.20;;
43580;SDS011;29175;51.030;4.606;2023-04-06T04:37:19;37.03;;;16.10;;
43580;SDS011;29175;51.030;4.606;2023-04-06T04:39:45;41.05;;;14.73;;
43580;SDS011;29175;51.030;4.606;2023-04-06T04:42:11;38.60;;;15.50;;
43580;SDS011;29175;51.030;4.606;2023-04-06T04:44:37;37.72;;;15.18;;
43580;SDS011;29175;51.030;4.606;2023-04-06T04:47:03;37.15;;;14.20;;
43580;SDS011;29175;51.030;4.606;2023-04-06T04:49:28;35.90;;;14.63;;
43580;SDS011;29175;51.030;4.606;2023-04-06T04:51:54;33.45;;;14.75;;
43580;SDS011;29175;51.030;4.606;2023-04-06T04:54:20;39.30;;;15.27;;
43580;SDS011;29175;51.030;4.606;2023-04-06T04:56:46;38.17;;;14.90;;
43580;SDS011;29175;51.030;4.606;2023-04-06T04:59:12;44.60;;;14.13;;
43580;SDS011;29175;51.030;4.606;2023-04-06T05:01:37;36.30;;;14.68;;
43580;SDS011;29175;51.030;4.606;2023-04-06T05:04:03;36.42;;;15.38;;
43580;SDS011;29175;51.030;4.606;2023-04-06T05:06:29;39.47;;;14.02;;
43580;SDS011;29175;51.030;4.606;2023-04-06T05:08:55;39.30;;;14.93;;
43580;SDS011;29175;51.030;4.606;2023-04-06T05:11:21;36.45;;;14.48;;
43580;SDS011;29175;51.030;4.606;2023-04-06T05:13:47;38.55;;;14.65;;
43580;SDS011;29175;51.030;4.606;2023-04-06T05:16:12;32.10;;;14.05;;
43580;SDS011;29175;51.030;4.606;2023-04-06T05:18:38;33.63;;;14.95;;
43580;SDS011;29175;51.030;4.606;2023-04-06T05:21:04;47.30;;;15.10;;
43580;SDS011;29175;51.030;4.606;2023-04-06T05:23:30;37.90;;;14.25;;
43580;SDS011;29175;51.030;4.606;2023-04-06T05:25:56;38.75;;;13.90;;
43580;SDS011;29175;51.030;4.606;2023-04-06T05:28:21;36.10;;;13.30;;
43580;SDS011;29175;51.030;4.606;2023-04-06T05:30:47;38.33;;;15.07;;
43580;SDS011;29175;51.030;4.606;2023-04-06T05:33:13;36.65;;;14.32;;
43580;SDS011;29175;51.030;4.606;2023-04-06T05:35:39;36.58;;;14.85;;
43580;SDS011;29175;51.030;4.606;2023-04-06T05:38:07;41.85;;;13.73;;
43580;SDS011;29175;51.030;4.606;2023-04-06T05:40:33;32.97;;;13.82;;
43580;SDS011;29175;51.030;4.606;2023-04-06T05:42:59;37.75;;;14.35;;
43580;SDS011;29175;51.030;4.606;2023-04-06T05:45:25;41.47;;;15.07;;
43580;SDS011;29175;51.030;4.606;2023-04-06T05:47:51;53.17;;;15.50;;
43580;SDS011;29175;51.030;4.606;2023-04-06T05:50:18;33.83;;;12.50;;
43580;SDS011;29175;51.030;4.606;2023-04-06T05:52:44;45.60;;;15.80;;
43580;SDS011;29175;51.030;4.606;2023-04-06T05:55:11;40.78;;;13.85;;
43580;SDS011;29175;51.030;4.606;2023-04-06T05:57:37;44.67;;;15.55;;
43580;SDS011;29175;51.030;4.606;2023-04-06T06:00:03;56.15;;;16.48;;
43580;SDS011;29175;51.030;4.606;2023-04-06T06:02:31;48.38;;;15.77;;
43580;SDS011;29175;51.030;4.606;2023-04-06T06:04:57;38.30;;;14.70;;
43580;SDS011;29175;51.030;4.606;2023-04-06T06:07:23;41.53;;;14.80;;
43580;SDS011;29175;51.030;4.606;2023-04-06T06:09:49;41.42;;;14.52;;
43580;SDS011;29175;51.030;4.606;2023-04-06T06:12:15;51.63;;;14.40;;
43580;SDS011;29175;51.030;4.606;2023-04-06T06:14:40;45.03;;;15.07;;
43580;SDS011;29175;51.030;4.606;2023-04-06T06:17:06;36.67;;;14.05;;
43580;SDS011;29175;51.030;4.606;2023-04-06T06:19:32;58.55;;;15.68;;
43580;SDS011;29175;51.030;4.606;2023-04-06T06:21:58;40.08;;;14.68;;
43580;SDS011;29175;51.030;4.606;2023-04-06T06:24:26;45.53;;;14.73;;
43580;SDS011;29175;51.030;4.606;2023-04-06T06:26:52;34.40;;;14.63;;
43580;SDS011;29175;51.030;4.606;2023-04-06T06:29:18;55.22;;;15.18;;
43580;SDS011;29175;51.030;4.606;2023-04-06T06:31:44;41.85;;;15.45;;
43580;SDS011;29175;51.030;4.606;2023-04-06T06:34:10;44.88;;;13.77;;
43580;SDS011;29175;51.030;4.606;2023-04-06T06:36:37;46.80;;;15.10;;
43580;SDS011;29175;51.030;4.606;2023-04-06T06:39:03;38.28;;;14.98;;
43580;SDS011;29175;51.030;4.606;2023-04-06T06:41:29;43.33;;;15.38;;
43580;SDS011;29175;51.030;4.606;2023-04-06T06:43:55;36.00;;;14.52;;
43580;SDS011;29175;51.030;4.606;2023-04-06T06:46:20;39.40;;;14.27;;
43580;SDS011;29175;51.030;4.606;2023-04-06T06:48:46;40.58;;;14.27;;
43580;SDS011;29175;51.030;4.606;2023-04-06T06:51:12;43.13;;;15.65;;
43580;SDS011;29175;51.030;4.606;2023-04-06T06:53:37;41.60;;;15.82;;
43580;SDS011;29175;51.030;4.606;2023-04-06T06:56:03;38.22;;;15.55;;
43580;SDS011;29175;51.030;4.606;2023-04-06T06:58:29;37.95;;;14.82;;
43580;SDS011;29175;51.030;4.606;2023-04-06T07:00:55;40.53;;;14.93;;
43580;SDS011;29175;51.030;4.606;2023-04-06T07:03:23;43.67;;;15.48;;
43580;SDS011;29175;51.030;4.606;2023-04-06T07:05:49;40.97;;;14.85;;
43580;SDS011;29175;51.030;4.606;2023-04-06T07:08:21;44.15;;;16.52;;
43580;SDS011;29175;51.030;4.606;2023-04-06T07:10:49;42.92;;;16.13;;
43580;SDS011;29175;51.030;4.606;2023-04-06T07:13:17;47.60;;;17.55;;
43580;SDS011;29175;51.030;4.606;2023-04-06T07:18:13;48.33;;;15.93;;
43580;SDS011;29175;51.030;4.606;2023-04-06T07:20:39;44.45;;;15.80;;
43580;SDS011;29175;51.030;4.606;2023-04-06T07:23:05;39.25;;;16.30;;
43580;SDS011;29175;51.030;4.606;2023-04-06T07:25:32;54.75;;;18.42;;
43580;SDS011;29175;51.030;4.606;2023-04-06T07:27:57;46.95;;;17.90;;
43580;SDS011;29175;51.030;4.606;2023-04-06T07:30:23;43.33;;;18.33;;
43580;SDS011;29175;51.030;4.606;2023-04-06T07:32:51;51.75;;;18.92;;
43580;SDS011;29175;51.030;4.606;2023-04-06T07:35:17;45.97;;;18.23;;
43580;SDS011;29175;51.030;4.606;2023-04-06T07:37:43;49.55;;;18.13;;
43580;SDS011;29175;51.030;4.606;2023-04-06T07:40:09;48.70;;;18.88;;
43580;SDS011;29175;51.030;4.606;2023-04-06T07:42:35;50.28;;;18.73;;
43580;SDS011;29175;51.030;4.606;2023-04-06T07:45:00;55.13;;;19.98;;
43580;SDS011;29175;51.030;4.606;2023-04-06T07:47:26;48.72;;;18.75;;
43580;SDS011;29175;51.030;4.606;2023-04-06T07:49:54;49.97;;;18.23;;
43580;SDS011;29175;51.030;4.606;2023-04-06T07:52:20;46.80;;;17.85;;
43580;SDS011;29175;51.030;4.606;2023-04-06T07:54:46;53.85;;;19.15;;
43580;SDS011;29175;51.030;4.606;2023-04-06T07:57:14;53.78;;;18.67;;
43580;SDS011;29175;51.030;4.606;2023-04-06T07:59:40;46.38;;;18.77;;
43580;SDS011;29175;51.030;4.606;2023-04-06T08:02:05;52.13;;;19.30;;
43580;SDS011;29175;51.030;4.606;2023-04-06T08:04:31;49.05;;;18.13;;
43580;SDS011;29175;51.030;4.606;2023-04-06T08:06:57;46.53;;;18.33;;
43580;SDS011;29175;51.030;4.606;2023-04-06T08:09:23;46.67;;;17.80;;
43580;SDS011;29175;51.030;4.606;2023-04-06T08:11:49;49.83;;;18.27;;
43580;SDS011;29175;51.030;4.606;2023-04-06T08:14:15;46.65;;;17.30;;
43580;SDS011;29175;51.030;4.606;2023-04-06T08:16:41;48.95;;;17.33;;
43580;SDS011;29175;51.030;4.606;2023-04-06T08:19:07;41.50;;;16.20;;
43580;SDS011;29175;51.030;4.606;2023-04-06T08:21:34;45.05;;;16.13;;
43580;SDS011;29175;51.030;4.606;2023-04-06T08:24:00;36.50;;;14.30;;
43580;SDS011;29175;51.030;4.606;2023-04-06T08:26:26;36.42;;;15.35;;
43580;SDS011;29175;51.030;4.606;2023-04-06T08:28:53;42.75;;;13.93;;
43580;SDS011;29175;51.030;4.606;2023-04-06T08:31:18;38.17;;;13.40;;
43580;SDS011;29175;51.030;4.606;2023-04-06T08:33:44;39.22;;;13.73;;
43580;SDS011;29175;51.030;4.606;2023-04-06T08:36:14;26.48;;;12.02;;
43580;SDS011;29175;51.030;4.606;2023-04-06T08:38:40;34.30;;;13.77;;
43580;SDS011;29175;51.030;4.606;2023-04-06T08:41:11;31.60;;;11.98;;
43580;SDS011;29175;51.030;4.606;2023-04-06T08:43:57;28.15;;;11.98;;
43580;SDS011;29175;51.030;4.606;2023-04-06T08:46:24;29.90;;;11.60;;
43580;SDS011;29175;51.030;4.606;2023-04-06T08:48:57;25.48;;;11.05;;
43580;SDS011;29175;51.030;4.606;2023-04-06T08:51:24;24.30;;;10.40;;
43580;SDS011;29175;51.030;4.606;2023-04-06T08:53:53;22.27;;;10.07;;
43580;SDS011;29175;51.030;4.606;2023-04-06T08:56:24;28.77;;;11.13;;
43580;SDS011;29175;51.030;4.606;2023-04-06T08:58:50;23.80;;;9.80;;
43580;SDS011;29175;51.030;4.606;2023-04-06T09:01:20;23.63;;;9.30;;
43580;SDS011;29175;51.030;4.606;2023-04-06T09:03:46;30.30;;;11.30;;
43580;SDS011;29175;51.030;4.606;2023-04-06T09:06:14;24.45;;;9.90;;
43580;SDS011;29175;51.030;4.606;2023-04-06T09:08:40;22.02;;;9.05;;
43580;SDS011;29175;51.030;4.606;2023-04-06T09:11:07;25.70;;;9.88;;
43580;SDS011;29175;51.030;4.606;2023-04-06T09:13:50;28.08;;;10.52;;
43580;SDS011;29175;51.030;4.606;2023-04-06T09:16:17;23.23;;;10.25;;
43580;SDS011;29175;51.030;4.606;2023-04-06T09:18:44;22.52;;;9.18;;
43580;SDS011;29175;51.030;4.606;2023-04-06T09:21:10;22.90;;;9.63;;
43580;SDS011;29175;51.030;4.606;2023-04-06T09:23:36;24.27;;;9.45;;
43580;SDS011;29175;51.030;4.606;2023-04-06T09:26:10;24.20;;;9.63;;
43580;SDS011;29175;51.030;4.606;2023-04-06T09:28:44;23.70;;;9.07;;
43580;SDS011;29175;51.030;4.606;2023-04-06T09:31:10;25.65;;;9.57;;
43580;SDS011;29175;51.030;4.606;2023-04-06T09:33:37;24.52;;;10.25;;
43580;SDS011;29175;51.030;4.606;2023-04-06T09:36:05;25.83;;;10.65;;
43580;SDS011;29175;51.030;4.606;2023-04-06T09:38:32;28.65;;;10.10;;
43580;SDS011;29175;51.030;4.606;2023-04-06T09:40:57;23.10;;;10.02;;
43580;SDS011;29175;51.030;4.606;2023-04-06T09:43:27;23.55;;;9.63;;
43580;SDS011;29175;51.030;4.606;2023-04-06T09:45:53;20.95;;;9.30;;
43580;SDS011;29175;51.030;4.606;2023-04-06T09:48:25;27.35;;;10.90;;
43580;SDS011;29175;51.030;4.606;2023-04-06T09:50:55;25.80;;;10.00;;
43580;SDS011;29175;51.030;4.606;2023-04-06T09:53:25;27.58;;;10.18;;
43580;SDS011;29175;51.030;4.606;2023-04-06T09:55:55;23.88;;;10.32;;
43580;SDS011;29175;51.030;4.606;2023-04-06T09:58:26;22.73;;;10.18;;
43580;SDS011;29175;51.030;4.606;2023-04-06T10:01:07;24.42;;;10.63;;
43580;SDS011;29175;51.030;4.606;2023-04-06T10:03:41;28.30;;;12.40;;
43580;SDS011;29175;51.030;4.606;2023-04-06T10:06:15;24.27;;;10.70;;
43580;SDS011;29175;51.030;4.606;2023-04-06T10:08:45;30.55;;;12.13;;
43580;SDS011;29175;51.030;4.606;2023-04-06T10:11:12;32.63;;;12.35;;
43580;SDS011;29175;51.030;4.606;2023-04-06T10:13:38;35.30;;;13.95;;
43580;SDS011;29175;51.030;4.606;2023-04-06T10:16:04;23.58;;;10.88;;
43580;SDS011;29175;51.030;4.606;2023-04-06T10:18:31;29.15;;;12.20;;
43580;SDS011;29175;51.030;4.606;2023-04-06T10:21:00;26.95;;;11.75;;
43580;SDS011;29175;51.030;4.606;2023-04-06T10:23:48;31.50;;;13.45;;
43580;SDS011;29175;51.030;4.606;2023-04-06T10:26:21;31.23;;;12.38;;
43580;SDS011;29175;51.030;4.606;2023-04-06T10:28:48;33.07;;;12.70;;
43580;SDS011;29175;51.030;4.606;2023-04-06T10:31:15;34.33;;;12.63;;
43580;SDS011;29175;51.030;4.606;2023-04-06T10:34:01;31.33;;;12.07;;
43580;SDS011;29175;51.030;4.606;2023-04-06T10:36:34;29.08;;;11.48;;
43580;SDS011;29175;51.030;4.606;2023-04-06T10:39:01;29.33;;;12.77;;
43580;SDS011;29175;51.030;4.606;2023-04-06T10:41:32;29.45;;;12.55;;
43580;SDS011;29175;51.030;4.606;2023-04-06T10:46:42;24.20;;;10.48;;
43580;SDS011;29175;51.030;4.606;2023-04-06T10:49:18;31.95;;;11.82;;
43580;SDS011;29175;51.030;4.606;2023-04-06T10:51:44;25.02;;;11.90;;
43580;SDS011;29175;51.030;4.606;2023-04-06T10:54:10;28.90;;;11.80;;
43580;SDS011;29175;51.030;4.606;2023-04-06T10:56:37;29.48;;;12.15;;
43580;SDS011;29175;51.030;4.606;2023-04-06T10:59:04;27.75;;;11.10;;
43580;SDS011;29175;51.030;4.606;2023-04-06T11:01:31;29.05;;;10.27;;
43580;SDS011;29175;51.030;4.606;2023-04-06T11:03:57;26.10;;;10.90;;
43580;SDS011;29175;51.030;4.606;2023-04-06T11:06:26;30.05;;;11.98;;
43580;SDS011;29175;51.030;4.606;2023-04-06T11:08:54;24.17;;;11.18;;
43580;SDS011;29175;51.030;4.606;2023-04-06T11:11:21;29.40;;;11.23;;
43580;SDS011;29175;51.030;4.606;2023-04-06T11:13:58;29.00;;;12.02;;
43580;SDS011;29175;51.030;4.606;2023-04-06T11:16:26;32.05;;;12.55;;
43580;SDS011;29175;51.030;4.606;2023-04-06T11:21:31;28.55;;;11.18;;
43580;SDS011;29175;51.030;4.606;2023-04-06T11:24:11;33.88;;;12.68;;
43580;SDS011;29175;51.030;4.606;2023-04-06T11:26:44;27.90;;;11.85;;
43580;SDS011;29175;51.030;4.606;2023-04-06T11:29:13;33.45;;;11.80;;
43580;SDS011;29175;51.030;4.606;2023-04-06T11:31:41;29.05;;;11.45;;
43580;SDS011;29175;51.030;4.606;2023-04-06T11:34:15;26.48;;;11.73;;
43580;SDS011;29175;51.030;4.606;2023-04-06T11:36:43;29.95;;;12.00;;
43580;SDS011;29175;51.030;4.606;2023-04-06T11:39:10;27.10;;;11.98;;
43580;SDS011;29175;51.030;4.606;2023-04-06T11:41:36;26.40;;;11.60;;
43580;SDS011;29175;51.030;4.606;2023-04-06T11:44:02;27.83;;;12.15;;
43580;SDS011;29175;51.030;4.606;2023-04-06T11:46:28;26.33;;;11.38;;
43580;SDS011;29175;51.030;4.606;2023-04-06T11:49:01;26.50;;;10.43;;
43580;SDS011;29175;51.030;4.606;2023-04-06T11:51:27;26.95;;;11.88;;
43580;SDS011;29175;51.030;4.606;2023-04-06T11:53:53;34.08;;;12.80;;
43580;SDS011;29175;51.030;4.606;2023-04-06T11:56:24;31.45;;;11.95;;
43580;SDS011;29175;51.030;4.606;2023-04-06T11:58:51;48.10;;;12.60;;
43580;SDS011;29175;51.030;4.606;2023-04-06T12:01:17;21.67;;;9.65;;
43580;SDS011;29175;51.030;4.606;2023-04-06T12:03:43;33.80;;;12.95;;
43580;SDS011;29175;51.030;4.606;2023-04-06T12:06:09;31.40;;;12.77;;
43580;SDS011;29175;51.030;4.606;2023-04-06T12:08:34;27.25;;;11.32;;
43580;SDS011;29175;51.030;4.606;2023-04-06T12:11:00;24.02;;;11.23;;
43580;SDS011;29175;51.030;4.606;2023-04-06T12:13:26;26.42;;;11.55;;
43580;SDS011;29175;51.030;4.606;2023-04-06T12:15:52;25.83;;;10.32;;
43580;SDS011;29175;51.030;4.606;2023-04-06T12:18:18;27.27;;;10.35;;
43580;SDS011;29175;51.030;4.606;2023-04-06T12:20:43;25.10;;;10.93;;
43580;SDS011;29175;51.030;4.606;2023-04-06T12:23:09;25.10;;;11.20;;
43580;SDS011;29175;51.030;4.606;2023-04-06T12:25:35;20.52;;;9.82;;
43580;SDS011;29175;51.030;4.606;2023-04-06T12:28:01;24.65;;;10.68;;
43580;SDS011;29175;51.030;4.606;2023-04-06T12:30:26;26.23;;;10.65;;
43580;SDS011;29175;51.030;4.606;2023-04-06T12:32:52;28.45;;;11.43;;
43580;SDS011;29175;51.030;4.606;2023-04-06T12:35:18;27.10;;;10.60;;
43580;SDS011;29175;51.030;4.606;2023-04-06T12:37:43;22.77;;;10.73;;
43580;SDS011;29175;51.030;4.606;2023-04-06T12:40:09;23.52;;;10.38;;
43580;SDS011;29175;51.030;4.606;2023-04-06T12:42:38;22.30;;;9.60;;
43580;SDS011;29175;51.030;4.606;2023-04-06T12:45:04;21.52;;;10.13;;
43580;SDS011;29175;51.030;4.606;2023-04-06T12:47:30;26.15;;;11.70;;
43580;SDS011;29175;51.030;4.606;2023-04-06T12:49:56;27.65;;;11.00;;
43580;SDS011;29175;51.030;4.606;2023-04-06T12:52:22;26.30;;;11.18;;
43580;SDS011;29175;51.030;4.606;2023-04-06T12:54:47;25.50;;;10.80;;
43580;SDS011;29175;51.030;4.606;2023-04-06T12:57:13;25.55;;;12.13;;
43580;SDS011;29175;51.030;4.606;2023-04-06T12:59:42;27.50;;;11.52;;
43580;SDS011;29175;51.030;4.606;2023-04-06T13:02:09;22.85;;;10.93;;
43580;SDS011;29175;51.030;4.606;2023-04-06T13:04:35;31.33;;;11.80;;
43580;SDS011;29175;51.030;4.606;2023-04-06T13:07:01;26.80;;;11.63;;
43580;SDS011;29175;51.030;4.606;2023-04-06T13:09:27;24.13;;;11.18;;
43580;SDS011;29175;51.030;4.606;2023-04-06T13:11:52;25.83;;;11.63;;
43580;SDS011;29175;51.030;4.606;2023-04-06T13:14:18;33.42;;;14.02;;
43580;SDS011;29175;51.030;4.606;2023-04-06T13:16:44;29.98;;;13.48;;
43580;SDS011;29175;51.030;4.606;2023-04-06T13:19:09;24.38;;;11.52;;
43580;SDS011;29175;51.030;4.606;2023-04-06T13:21:35;24.90;;;11.10;;
43580;SDS011;29175;51.030;4.606;2023-04-06T13:24:01;24.92;;;11.18;;
43580;SDS011;29175;51.030;4.606;2023-04-06T13:26:27;27.73;;;11.95;;
43580;SDS011;29175;51.030;4.606;2023-04-06T13:28:53;33.45;;;13.73;;
43580;SDS011;29175;51.030;4.606;2023-04-06T13:31:21;27.88;;;12.70;;
43580;SDS011;29175;51.030;4.606;2023-04-06T13:33:47;28.02;;;12.20;;
43580;SDS011;29175;51.030;4.606;2023-04-06T13:36:13;26.27;;;12.05;;
43580;SDS011;29175;51.030;4.606;2023-04-06T13:38:39;29.38;;;11.90;;
43580;SDS011;29175;51.030;4.606;2023-04-06T13:41:05;29.48;;;12.73;;
43580;SDS011;29175;51.030;4.606;2023-04-06T13:43:31;30.52;;;11.77;;
43580;SDS011;29175;51.030;4.606;2023-04-06T13:45:57;28.05;;;11.95;;
43580;SDS011;29175;51.030;4.606;2023-04-06T13:48:25;25.88;;;12.50;;
43580;SDS011;29175;51.030;4.606;2023-04-06T13:50:53;33.67;;;12.73;;
43580;SDS011;29175;51.030;4.606;2023-04-06T13:53:19;27.88;;;12.57;;
43580;SDS011;29175;51.030;4.606;2023-04-06T13:55:51;29.30;;;12.13;;
43580;SDS011;29175;51.030;4.606;2023-04-06T13:58:18;30.48;;;12.23;;
43580;SDS011;29175;51.030;4.606;2023-04-06T14:00:44;26.77;;;12.13;;
43580;SDS011;29175;51.030;4.606;2023-04-06T14:03:09;31.90;;;12.57;;
43580;SDS011;29175;51.030;4.606;2023-04-06T14:05:35;29.13;;;12.60;;
43580;SDS011;29175;51.030;4.606;2023-04-06T14:08:02;30.15;;;13.43;;
43580;SDS011;29175;51.030;4.606;2023-04-06T14:10:28;33.40;;;14.07;;
43580;SDS011;29175;51.030;4.606;2023-04-06T14:12:53;33.92;;;13.18;;
43580;SDS011;29175;51.030;4.606;2023-04-06T14:15:20;33.78;;;15.50;;
43580;SDS011;29175;51.030;4.606;2023-04-06T14:17:47;31.45;;;13.50;;
43580;SDS011;29175;51.030;4.606;2023-04-06T14:20:13;29.75;;;13.52;;
43580;SDS011;29175;51.030;4.606;2023-04-06T14:22:40;42.53;;;14.25;;
43580;SDS011;29175;51.030;4.606;2023-04-06T14:25:08;33.85;;;14.35;;
43580;SDS011;29175;51.030;4.606;2023-04-06T14:27:36;31.85;;;14.85;;